KTSP/TSP METAR and TAF weather

Enter ICAO airport designator
Station Type Date Time Source
KTSP METAR 2019/08/24 06:55 UTC NOAA

KTSP 240655Z AUTO 00000KT 10SM CLR 16/04 A3004 RMK AO2


Station Type Date Time Source
KTSP Decoded METAR 2019/08/24 06:55 UTC NOAA

Station name not available
Aug 24, 2019 - 02:55 AM EDT / 2019.08.24 0655 UTC
Wind: Calm:0
Visibility: 10 mile(s):0
Sky conditions: clear
Temperature: 60 F (16 C)
Dew Point: 39 F (4 C)
Relative Humidity: 44%
Pressure (altimeter): 30.04 in. Hg (1017 hPa)
ob: KTSP 240655Z AUTO 00000KT 10SM CLR 16/04 A3004 RMK AO2
cycle: 7

Station Type Date Time Source
KTSP TAF UTC NOAA

Error!

Example: see airport list